Time;durP1;ratioP1;P1;durP2;ratioP2;P2;SDS_P1;SDS_P2;PMS_P1;PMS_P2;Temp;Humidity;BMP_temperature;BMP_pressure;BME280_temperature;BME280_humidity;BME280_pressure;Samples;Min_cycle;Max_cycle;Signal;HPM_P1;HPM_P2
2021/01/06 00:01:11;;;;;;;27.65;18.35;;;4.60;99.90;;;3.88;80.95;101224.88;4119481;28;20034;-69
2021/01/06 00:03:18;;;;;;;26.73;18.55;;;4.60;99.90;;;4.00;80.04;101216.25;4103640;29;20088;-69
2021/01/06 00:05:25;;;;;;;26.75;17.92;;;4.60;99.90;;;3.96;81.04;101206.09;4119909;28;20506;-69
2021/01/06 00:07:26;;;;;;;29.85;19.20;;;4.50;99.90;;;3.99;80.74;101204.13;4121085;28;20061;-69
2021/01/06 00:09:26;;;;;;;30.95;19.13;;;4.60;99.90;;;4.07;80.40;101204.44;4119598;28;20027;-69
2021/01/06 00:11:36;;;;;;;28.88;18.85;;;4.50;99.90;;;4.02;80.59;101205.69;4120927;28;20482;-69
2021/01/06 00:13:37;;;;;;;25.73;17.83;;;4.60;99.90;;;4.06;80.45;101221.03;4119594;28;20022;-69
2021/01/06 00:15:38;;;;;;;29.80;19.88;;;4.60;99.90;;;3.96;80.26;101219.13;4119148;28;20033;-69
2021/01/06 00:17:39;;;;;;;28.45;18.23;;;4.50;99.90;;;3.93;81.56;101214.97;4120887;28;20487;-69
2021/01/06 00:19:40;;;;;;;26.50;18.23;;;4.50;99.90;;;3.94;79.96;101206.22;4103569;29;20034;-69
2021/01/06 00:21:41;;;;;;;28.67;17.73;;;4.60;99.90;;;3.97;80.69;101213.00;4120716;28;20073;-69
2021/01/06 00:23:42;;;;;;;27.05;17.77;;;4.50;99.90;;;3.97;80.74;101205.16;4120413;28;20384;-69
2021/01/06 00:25:42;;;;;;;26.55;16.88;;;4.50;99.90;;;3.98;80.47;101205.03;4120681;28;20062;-69
2021/01/06 00:27:44;;;;;;;27.80;18.58;;;4.50;99.90;;;3.91;81.39;101209.03;4120543;28;20030;-69
2021/01/06 00:29:45;;;;;;;26.35;17.42;;;4.50;99.90;;;4.00;80.96;101203.19;4126280;28;20501;-69
2021/01/06 00:31:46;;;;;;;28.08;18.25;;;4.50;99.90;;;4.04;80.63;101191.59;4107122;28;20039;-69
2021/01/06 00:33:46;;;;;;;24.73;15.88;;;4.60;99.90;;;3.99;81.27;101205.88;4120199;28;20110;-69
2021/01/06 00:35:57;;;;;;;27.20;17.40;;;4.50;99.90;;;3.93;81.66;101194.09;4120518;28;20026;-69
2021/01/06 00:37:58;;;;;;;26.20;17.13;;;4.50;99.90;;;3.97;82.35;101192.94;4111264;28;20035;-69
2021/01/06 00:39:59;;;;;;;26.27;17.83;;;4.50;99.90;;;4.05;81.22;101190.66;4117259;28;20387;-69
2021/01/06 00:42:00;;;;;;;25.52;17.25;;;4.50;99.90;;;4.01;81.73;101188.34;4107606;28;20087;-69
2021/01/06 00:44:02;;;;;;;27.02;18.17;;;4.50;99.90;;;4.11;80.82;101182.41;4120017;28;20529;-69
2021/01/06 00:46:04;;;;;;;25.40;17.58;;;4.60;99.90;;;3.97;81.95;101179.06;4102935;28;20030;-69
2021/01/06 00:48:06;;;;;;;26.25;17.60;;;4.60;99.90;;;3.46;83.83;101189.41;4118919;28;20435;-69
2021/01/06 00:50:07;;;;;;;27.02;18.77;;;3.80;99.90;;;3.74;82.88;101194.47;4120164;28;20050;-69
2021/01/06 00:52:08;;;;;;;27.02;17.30;;;4.40;99.90;;;4.03;81.18;101195.16;4119145;28;20070;-69
2021/01/06 00:54:09;;;;;;;25.70;17.80;;;4.50;99.90;;;4.06;80.45;101197.53;4102846;29;20015;-69
2021/01/06 00:56:10;;;;;;;27.05;18.08;;;4.60;99.90;;;4.08;80.31;101208.72;4102671;29;20041;-69
2021/01/06 00:58:11;;;;;;;24.95;16.73;;;4.70;99.90;;;3.99;80.22;101217.16;4120200;28;20030;-69
2021/01/06 01:00:18;;;;;;;27.48;18.45;;;4.60;99.90;;;3.72;81.29;101211.16;4118820;28;20031;-69
2021/01/06 01:02:19;;;;;;;29.58;18.40;;;4.70;99.90;;;3.83;80.84;101214.72;4119832;28;20489;-69
2021/01/06 01:04:20;;;;;;;29.30;17.88;;;4.60;99.90;;;3.72;80.82;101208.56;4119752;28;20034;-69
2021/01/06 01:06:29;;;;;;;30.13;20.05;;;4.60;99.90;;;3.55;81.87;101212.28;4118957;28;20372;-69
2021/01/06 01:08:30;;;;;;;24.20;16.98;;;4.50;99.90;;;3.79;82.11;101218.47;4118649;28;20518;-69
2021/01/06 01:10:47;;;;;;;28.45;18.27;;;4.50;99.90;;;3.75;81.83;101217.03;4117192;28;20026;-69
2021/01/06 01:12:51;;;;;;;26.88;17.45;;;4.40;99.90;;;3.63;82.31;101214.38;4108105;28;20038;-69
2021/01/06 01:14:51;;;;;;;28.83;18.42;;;4.40;99.90;;;3.70;81.69;101206.03;4114864;28;20070;-69
2021/01/06 01:16:52;;;;;;;28.35;18.05;;;4.30;99.90;;;3.75;81.28;101214.41;4119510;28;20027;-69
2021/01/06 01:18:53;;;;;;;28.70;17.70;;;4.40;99.90;;;3.73;80.68;101212.84;4117753;28;20022;-69
2021/01/06 01:20:58;;;;;;;26.83;18.33;;;4.50;99.90;;;3.33;82.19;101219.81;4116029;28;20039;-69
2021/01/06 01:22:59;;;;;;;28.73;18.33;;;4.90;99.90;;;3.51;82.81;101207.34;4099308;29;20034;-69
2021/01/06 01:25:00;;;;;;;29.27;17.58;;;4.40;99.90;;;3.54;82.21;101208.00;4118464;28;20430;-69
2021/01/06 01:27:01;;;;;;;27.65;17.70;;;4.40;99.90;;;3.68;82.59;101205.31;4102346;29;20027;-69
2021/01/06 01:29:02;;;;;;;30.40;19.50;;;4.30;99.90;;;3.74;81.14;101202.28;4120071;28;20019;-69
2021/01/06 01:31:03;;;;;;;30.50;18.65;;;4.40;99.90;;;3.44;82.67;101217.31;4134267;28;20076;-69
2021/01/06 01:33:05;;;;;;;28.00;17.70;;;4.50;99.90;;;3.63;82.07;101211.75;4124948;28;20026;-69
2021/01/06 01:35:06;;;;;;;26.80;17.75;;;4.40;99.90;;;3.50;83.15;101218.69;4119040;28;20498;-69
2021/01/06 01:37:07;;;;;;;30.77;19.05;;;4.30;99.90;;;3.54;82.20;101204.53;4117092;28;20428;-69
2021/01/06 01:39:08;;;;;;;29.70;18.23;;;4.40;99.90;;;3.59;82.47;101216.34;4108240;28;20035;-69
2021/01/06 01:41:12;;;;;;;26.13;18.38;;;4.40;99.90;;;3.52;82.03;101209.03;4119465;28;20039;-69
2021/01/06 01:43:13;;;;;;;28.30;18.30;;;4.30;99.90;;;3.59;82.83;101225.94;4118047;28;20047;-69
2021/01/06 01:45:14;;;;;;;29.83;18.65;;;4.30;99.90;;;3.47;82.05;101218.91;4119249;28;20062;-69
2021/01/06 01:47:20;;;;;;;28.27;18.25;;;4.30;99.90;;;3.43;83.71;101207.00;4119410;28;20031;-69
2021/01/06 01:49:28;;;;;;;29.30;17.92;;;4.30;99.90;;;3.47;84.37;101216.28;4118392;28;20030;-69
2021/01/06 01:51:47;;;;;;;30.15;18.45;;;4.20;99.90;;;3.66;82.62;101228.06;4118016;28;20046;-69
2021/01/06 01:53:55;;;;;;;29.17;17.88;;;4.30;99.90;;;3.65;81.77;101230.75;4102183;29;20027;-69
2021/01/06 01:55:58;;;;;;;31.38;19.35;;;4.40;99.90;;;3.66;81.83;101229.81;4118068;28;20523;-69
2021/01/06 01:58:07;;;;;;;31.38;20.08;;;4.40;99.90;;;3.54;82.63;101234.06;4117979;28;20039;-69
2021/01/06 02:00:19;;;;;;;30.08;18.38;;;4.40;99.90;;;3.57;83.46;101226.03;4118344;28;20026;-69
2021/01/06 02:02:52;;;;;;;30.52;19.17;;;4.30;99.90;;;3.80;81.45;101238.41;4128662;28;20037;-69
2021/01/06 02:04:57;;;;;;;29.05;18.58;;;4.30;99.90;;;3.67;82.08;101239.34;4093378;28;20524;-69
2021/01/06 02:07:06;;;;;;;29.33;19.05;;;4.30;99.90;;;3.50;82.59;101242.19;4118102;28;20034;-69
2021/01/06 02:09:54;;;;;;;29.98;18.88;;;4.30;99.90;;;3.54;82.10;101244.50;4118049;28;20023;-69
2021/01/06 02:12:18;;;;;;;31.60;20.75;;;4.30;99.90;;;3.57;81.68;101243.47;4103841;28;20036;-69
2021/01/06 02:14:32;;;;;;;27.05;18.08;;;4.30;99.90;;;3.57;82.75;101243.47;4101931;29;20059;-69
2021/01/06 02:17:04;;;;;;;29.10;18.92;;;4.30;99.90;;;3.74;82.27;101240.59;4124752;28;20031;-69
2021/01/06 02:19:06;;;;;;;24.92;16.38;;;4.30;99.90;;;3.67;82.87;101242.78;4119091;28;20034;-69
2021/01/06 02:21:15;;;;;;;29.33;20.20;;;4.30;99.90;;;3.66;81.86;101243.72;4119366;28;20039;-69
2021/01/06 02:23:16;;;;;;;29.15;18.08;;;4.30;99.90;;;3.85;81.89;101243.34;4119393;28;20034;-69
2021/01/06 02:25:20;;;;;;;29.45;18.90;;;4.40;99.90;;;3.80;82.00;101240.19;4119267;28;20409;-69
2021/01/06 02:27:21;;;;;;;24.60;15.15;;;4.40;99.90;;;3.86;81.53;101250.22;4118007;28;20106;-69
2021/01/06 02:29:23;;;;;;;32.42;20.27;;;4.40;99.90;;;3.83;81.18;101245.19;4122003;28;20050;-69
2021/01/06 02:31:25;;;;;;;29.80;19.00;;;4.40;99.90;;;3.81;81.30;101247.94;4125915;28;20081;-69
2021/01/06 02:33:27;;;;;;;31.38;19.27;;;4.50;99.90;;;3.77;81.88;101243.84;4117976;28;20078;-69
2021/01/06 02:35:28;;;;;;;30.60;20.10;;;4.40;99.90;;;3.71;81.79;101241.63;4119047;28;20762;-69
2021/01/06 02:37:29;;;;;;;29.85;19.08;;;4.50;99.90;;;3.66;83.11;101237.66;4096679;29;20035;-69
2021/01/06 02:39:30;;;;;;;26.98;17.20;;;4.40;99.90;;;3.63;83.55;101238.69;4110853;28;20019;-69
2021/01/06 02:41:31;;;;;;;28.70;18.65;;;4.40;99.90;;;3.83;81.90;101240.81;4117971;28;20043;-69
2021/01/06 02:43:32;;;;;;;28.58;18.17;;;4.30;99.90;;;3.98;82.05;101249.41;4118789;28;20070;-69
2021/01/06 02:45:34;;;;;;;31.27;20.08;;;4.40;99.90;;;3.82;82.14;101243.56;4119132;28;20118;-69
2021/01/06 02:47:36;;;;;;;28.88;18.27;;;4.40;99.90;;;3.80;81.82;101250.63;4122054;28;20035;-69
2021/01/06 02:49:36;;;;;;;30.35;19.10;;;4.40;99.90;;;3.83;81.40;101248.66;4120883;28;20070;-69
2021/01/06 02:51:47;;;;;;;29.55;19.08;;;4.40;99.90;;;3.78;81.74;101257.72;4120786;28;20398;-69
2021/01/06 02:54:04;;;;;;;28.88;18.80;;;4.50;99.90;;;3.64;82.24;101237.78;4106049;28;20027;-69
2021/01/06 02:56:06;;;;;;;29.75;18.42;;;4.60;99.90;;;3.54;83.33;101238.44;4120881;28;20046;-69
2021/01/06 02:58:13;;;;;;;33.47;20.70;;;4.40;99.90;;;3.62;82.33;101241.38;4120792;28;20035;-69
2021/01/06 03:00:21;;;;;;;31.48;18.63;;;4.40;99.90;;;3.67;83.46;101245.41;4120616;28;20038;-69
2021/01/06 03:02:24;;;;;;;30.10;20.05;;;4.40;99.90;;;3.72;83.62;101243.31;4122045;28;20039;-69
2021/01/06 03:04:27;;;;;;;27.73;18.35;;;4.40;99.90;;;3.46;82.89;101241.56;4120713;28;20501;-69
2021/01/06 03:06:36;;;;;;;22.80;14.70;;;4.30;99.90;;;3.54;83.05;101238.44;4122069;28;20584;-69
2021/01/06 03:08:38;;;;;;;31.02;19.33;;;4.20;99.90;;;3.64;83.18;101236.94;4121866;28;20086;-69
2021/01/06 03:10:40;;;;;;;30.90;18.92;;;4.20;99.90;;;3.60;82.79;101248.47;4121852;28;20046;-69
2021/01/06 03:12:41;;;;;;;29.83;19.05;;;4.20;99.90;;;3.67;83.28;101236.72;4122004;28;20442;-69
2021/01/06 03:14:43;;;;;;;31.52;19.50;;;4.20;99.90;;;3.70;82.95;101250.38;4104452;29;20027;-69
2021/01/06 03:16:44;;;;;;;32.35;20.67;;;4.30;99.90;;;3.57;82.51;101253.91;4120389;28;20035;-69
2021/01/06 03:18:45;;;;;;;31.50;18.80;;;4.20;99.90;;;3.57;83.56;101244.31;4121730;28;20090;-69
2021/01/06 03:20:49;;;;;;;29.13;20.30;;;4.20;99.90;;;3.64;83.37;101252.56;4120680;28;20109;-69
2021/01/06 03:22:59;;;;;;;27.30;17.75;;;4.20;99.90;;;3.72;82.01;101252.91;4120646;28;20058;-69
2021/01/06 03:25:09;;;;;;;30.70;19.92;;;4.30;99.90;;;3.72;82.97;101248.53;4104297;29;20491;-69
2021/01/06 03:27:12;;;;;;;31.23;20.30;;;4.30;99.90;;;3.76;83.01;101249.19;4120241;28;20035;-69
2021/01/06 03:29:13;;;;;;;33.67;19.83;;;4.30;99.90;;;3.89;81.39;101243.03;4119010;28;20035;-69
2021/01/06 03:31:27;;;;;;;34.95;20.65;;;4.30;99.90;;;3.85;81.39;101244.16;4104165;29;20019;-69
2021/01/06 03:33:47;;;;;;;31.27;19.77;;;4.40;99.90;;;3.85;81.84;101248.56;4120413;28;20039;-69
2021/01/06 03:36:05;;;;;;;30.42;18.77;;;4.50;99.90;;;3.89;80.90;101245.66;4094326;28;20032;-69
2021/01/06 03:38:23;;;;;;;33.30;20.25;;;4.40;99.90;;;3.75;82.02;101248.34;4109903;28;20039;-69
2021/01/06 03:40:37;;;;;;;31.08;19.73;;;4.50;99.90;;;3.71;82.88;101248.63;4121489;28;20034;-69
2021/01/06 03:42:39;;;;;;;29.80;19.30;;;4.50;99.90;;;3.54;83.21;101251.47;4103848;29;20030;-69
2021/01/06 03:44:40;;;;;;;34.33;21.15;;;4.30;99.90;;;3.43;83.32;101246.13;4120206;28;20027;-69
2021/01/06 03:46:54;;;;;;;30.35;20.58;;;4.30;99.90;;;3.59;84.16;101242.44;4119736;28;20031;-69
2021/01/06 03:48:55;;;;;;;32.50;21.25;;;4.20;99.90;;;3.44;83.63;101245.19;4104153;29;20041;-69
2021/01/06 03:51:36;;;;;;;35.00;19.70;;;4.20;99.90;;;3.49;84.59;101233.53;4104002;29;20067;-69
2021/01/06 03:53:43;;;;;;;31.77;18.90;;;4.10;99.90;;;3.32;84.93;101221.56;4111342;28;20479;-69
2021/01/06 03:56:23;;;;;;;33.22;20.35;;;4.10;99.90;;;3.48;84.29;101229.25;4119927;28;20035;-69
2021/01/06 03:59:14;;;;;;;32.08;20.55;;;4.00;99.90;;;3.85;82.44;101238.13;4093216;29;20063;-69
2021/01/06 04:01:40;;;;;;;26.77;16.75;;;4.20;99.90;;;3.55;83.34;101230.53;4090498;28;20045;-69
2021/01/06 04:04:18;;;;;;;29.50;18.65;;;4.20;99.90;;;3.45;85.10;101244.25;4120017;28;20027;-69
2021/01/06 04:06:23;;;;;;;35.05;20.23;;;4.10;99.90;;;3.16;85.10;101233.91;4091883;29;20178;-69
2021/01/06 04:08:54;;;;;;;33.28;21.45;;;4.00;99.90;;;3.33;84.00;101230.22;4119833;28;20052;-69
2021/01/06 04:10:59;;;;;;;29.38;17.65;;;4.10;99.90;;;3.23;85.46;101219.53;4119693;28;20418;-69
2021/01/06 04:13:00;;;;;;;29.67;18.45;;;4.00;99.90;;;3.31;85.31;101227.72;4119840;28;20026;-69
2021/01/06 04:15:03;;;;;;;32.58;20.15;;;3.80;99.90;;;3.49;83.65;101225.72;4120817;28;20202;-69
2021/01/06 04:17:28;;;;;;;29.83;19.38;;;4.00;99.90;;;3.61;83.54;101232.75;4120848;28;20026;-69
2021/01/06 04:19:29;;;;;;;;;;;4.00;99.90;;;3.61;83.30;101234.50;4111308;28;20027;-69
2021/01/06 04:21:30;;;;;;;30.02;17.98;;;4.00;99.90;;;3.55;83.29;101233.16;4120875;28;19910;-69
2021/01/06 04:23:31;;;;;;;31.88;18.67;;;4.00;99.90;;;3.37;84.69;101228.25;4120770;28;20031;-69
2021/01/06 04:25:47;;;;;;;30.00;17.90;;;4.00;99.90;;;3.26;85.92;101236.75;4103285;29;20034;-69
2021/01/06 04:28:12;;;;;;;31.30;19.17;;;3.90;99.90;;;3.45;83.90;101237.28;4119389;28;20038;-69
2021/01/06 04:30:23;;;;;;;28.95;19.05;;;3.90;99.90;;;3.49;84.12;101235.31;4129933;28;20026;-69
2021/01/06 04:32:32;;;;;;;27.45;18.20;;;3.90;99.90;;;3.52;83.63;101235.09;4108935;28;20033;-69
2021/01/06 04:34:33;;;;;;;32.85;18.65;;;3.90;99.90;;;3.47;83.50;101231.94;4127792;28;20022;-69
2021/01/06 04:36:34;;;;;;;32.47;19.50;;;3.90;99.90;;;3.42;83.21;101229.63;4120603;28;20082;-69
2021/01/06 04:38:44;;;;;;;30.55;19.52;;;3.90;99.90;;;3.33;84.29;101231.06;4107963;28;20102;-69
2021/01/06 04:40:49;;;;;;;28.83;19.15;;;3.80;99.90;;;3.31;83.59;101232.09;4120489;28;20031;-69
2021/01/06 04:42:50;;;;;;;28.75;18.75;;;3.80;99.90;;;3.29;83.41;101218.31;4119211;28;20078;-69
2021/01/06 04:45:19;;;;;;;26.65;17.88;;;3.80;99.90;;;3.25;83.32;101227.28;4120431;28;20098;-69
2021/01/06 04:47:51;;;;;;;31.92;19.88;;;3.70;99.90;;;3.05;84.26;101233.72;4119299;28;20038;-69
2021/01/06 04:50:22;;;;;;;30.45;19.52;;;3.60;99.90;;;3.09;83.53;101232.63;4120076;28;20042;-69
2021/01/06 04:53:02;;;;;;;30.02;18.00;;;3.60;99.90;;;3.17;82.19;101230.34;4119331;28;20419;-69
2021/01/06 04:55:38;;;;;;;26.48;17.92;;;3.50;99.90;;;2.84;83.35;101227.25;4105936;28;20415;-69
2021/01/06 04:58:14;;;;;;;27.77;17.92;;;3.50;99.90;;;2.65;84.96;101221.53;4120301;28;20034;-69
2021/01/06 05:00:30;;;;;;;33.88;19.88;;;3.30;99.90;;;2.57;85.26;101218.56;4110434;28;20639;-69
2021/01/06 05:03:14;;;;;;;33.50;19.20;;;3.20;99.90;;;2.58;84.40;101225.41;4087352;29;20483;-69
2021/01/06 05:05:53;;;;;;;31.95;19.42;;;3.10;99.90;;;2.48;84.37;101216.50;4112969;28;20030;-69
2021/01/06 05:08:22;;;;;;;35.38;20.63;;;3.00;99.90;;;2.57;84.23;101215.94;4107420;28;20035;-69
2021/01/06 05:10:35;;;;;;;35.00;20.45;;;3.00;99.90;;;2.48;83.57;101214.72;4119265;28;20034;-69
2021/01/06 05:12:49;;;;;;;33.40;20.65;;;2.90;99.90;;;2.29;84.89;101218.53;4107456;28;20562;-69
2021/01/06 05:15:19;;;;;;;31.25;19.13;;;2.90;99.90;;;2.51;84.55;101221.53;4118888;28;20058;-69
2021/01/06 05:17:21;;;;;;;29.08;18.92;;;2.90;99.90;;;2.50;84.93;101220.69;4102056;29;20680;-69
2021/01/06 05:19:33;;;;;;;27.65;17.30;;;3.00;99.90;;;2.50;84.75;101212.88;4102868;29;20621;-69
2021/01/06 05:21:34;;;;;;;30.52;19.10;;;2.90;99.90;;;2.46;84.95;101206.16;4118826;28;20038;-69
2021/01/06 05:23:37;;;;;;;34.08;19.38;;;3.00;99.90;;;2.47;84.88;101209.63;4118667;28;20031;-69
2021/01/06 05:25:38;;;;;;;32.20;19.27;;;3.00;99.90;;;2.40;85.92;101213.50;4118846;28;20027;-69
2021/01/06 05:27:41;;;;;;;29.45;19.35;;;3.00;99.90;;;2.39;85.82;101210.06;4118585;28;20113;-69
2021/01/06 05:29:54;;;;;;;33.35;20.30;;;3.00;99.90;;;2.62;83.80;101211.28;4117142;28;20026;-69
2021/01/06 05:31:55;;;;;;;29.40;19.25;;;3.00;99.90;;;2.63;83.14;101211.19;4119494;28;20027;-69
2021/01/06 05:33:56;;;;;;;28.83;18.33;;;3.10;99.90;;;2.54;84.70;101205.72;4118794;28;20129;-69
2021/01/06 05:35:57;;;;;;;30.10;18.95;;;3.20;99.90;;;2.47;85.60;101223.47;4119795;28;20030;-69
2021/01/06 05:38:01;;;;;;;29.80;18.75;;;3.10;99.90;;;2.57;84.94;101214.16;4110828;28;20023;-69
2021/01/06 05:40:09;;;;;;;26.92;17.00;;;3.10;99.90;;;2.53;84.27;101217.06;4115970;28;20406;-69
2021/01/06 05:42:20;;;;;;;30.63;19.23;;;3.50;99.90;;;2.50;85.53;101217.25;4102370;29;20031;-69
2021/01/06 05:44:22;;;;;;;28.13;18.52;;;3.00;99.90;;;2.47;85.44;101222.63;4118631;28;20119;-69
2021/01/06 05:46:30;;;;;;;27.58;18.42;;;3.00;99.90;;;2.40;86.50;101226.53;4118273;28;20038;-69
2021/01/06 05:48:49;;;;;;;26.88;18.13;;;2.90;99.90;;;2.32;86.58;101213.13;4095464;28;20291;-69
2021/01/06 05:51:07;;;;;;;32.53;20.45;;;2.90;99.90;;;2.43;85.46;101221.13;4102359;29;20499;-69
2021/01/06 05:53:43;;;;;;;31.48;18.10;;;2.80;99.90;;;2.53;84.98;101220.50;4102213;29;20023;-69
2021/01/06 05:55:50;;;;;;;32.58;20.02;;;2.80;99.90;;;2.41;86.20;101223.00;4119632;28;20027;-69
2021/01/06 05:58:24;;;;;;;33.65;20.33;;;2.80;99.90;;;2.43;85.47;101216.78;4116289;28;20174;-69
2021/01/06 06:00:45;;;;;;;31.83;19.15;;;2.80;99.90;;;2.45;85.47;101230.53;4107914;28;20043;-69
2021/01/06 06:03:24;;;;;;;34.80;21.20;;;2.80;99.90;;;2.26;85.83;101229.13;4119331;28;20113;-69
2021/01/06 06:05:54;;;;;;;32.20;19.45;;;2.80;99.90;;;2.31;85.64;101234.88;4118393;28;20038;-69
2021/01/06 06:08:07;;;;;;;33.70;20.70;;;2.70;99.90;;;2.36;85.52;101236.28;4085851;28;20046;-69
2021/01/06 06:10:38;;;;;;;23.20;14.93;;;2.70;99.90;;;2.32;84.87;101239.16;4119293;28;20063;-69
2021/01/06 06:13:31;;;;;;;33.58;20.50;;;2.70;99.90;;;2.16;85.27;101245.28;4119341;28;20023;-69
2021/01/06 06:16:11;;;;;;;34.42;20.80;;;2.60;99.90;;;2.12;86.46;101237.75;4117816;28;20050;-69
2021/01/06 06:18:18;;;;;;;33.90;20.48;;;2.60;99.90;;;2.03;86.64;101244.31;4119365;28;20039;-69
2021/01/06 06:21:14;;;;;;;37.67;21.80;;;2.60;99.90;;;2.00;87.47;101249.69;4102084;28;20043;-69
2021/01/06 06:23:58;;;;;;;33.47;20.13;;;2.60;99.90;;;1.98;86.90;101251.56;4122555;28;20042;-69
2021/01/06 06:26:07;;;;;;;35.80;21.90;;;2.50;99.90;;;1.81;87.97;101259.50;4112932;28;20544;-69
2021/01/06 06:28:32;;;;;;;38.42;23.08;;;2.40;99.90;;;1.80;87.05;101256.97;4122510;28;20030;-69
2021/01/06 06:31:01;;;;;;;38.78;21.98;;;2.40;99.90;;;1.73;87.84;101264.31;4131543;28;20466;-69
2021/01/06 06:33:18;;;;;;;38.55;22.95;;;2.30;99.90;;;1.60;88.26;101265.91;4121630;28;20090;-69
2021/01/06 06:35:27;;;;;;;35.90;21.50;;;2.20;99.90;;;1.49;89.37;101255.28;4105256;29;20106;-69
2021/01/06 06:37:29;;;;;;;37.80;22.75;;;2.10;99.90;;;1.58;88.61;101262.56;4116207;28;20027;-69
2021/01/06 06:39:38;;;;;;;35.60;20.98;;;2.10;99.90;;;1.57;88.78;101255.69;4115775;28;20034;-69
2021/01/06 06:41:41;;;;;;;36.90;21.40;;;2.00;99.90;;;1.53;88.93;101261.97;4121132;28;20080;-69
2021/01/06 06:43:47;;;;;;;34.17;21.23;;;2.00;99.90;;;1.65;88.77;101269.94;4121030;28;20477;-69
2021/01/06 06:46:30;;;;;;;34.58;21.40;;;2.00;99.90;;;1.66;87.82;101274.22;4120998;28;20034;-69
2021/01/06 06:49:11;;;;;;;36.13;20.85;;;2.00;99.90;;;1.71;86.69;101279.13;4109264;28;20031;-69
2021/01/06 06:51:28;;;;;;;31.58;19.70;;;2.00;99.90;;;1.59;86.63;101266.81;4122049;28;20030;-69
2021/01/06 06:53:44;;;;;;;29.25;19.30;;;2.00;99.90;;;1.34;87.69;101274.31;4109888;28;20035;-69
2021/01/06 06:56:11;;;;;;;34.47;20.40;;;1.90;99.90;;;1.51;86.54;101287.22;4121057;28;20031;-69
2021/01/06 06:59:04;;;;;;;32.10;19.35;;;1.90;99.90;;;1.52;85.52;101286.31;4110343;28;20026;-69
2021/01/06 07:01:11;;;;;;;29.38;18.15;;;1.80;99.90;;;1.36;86.58;101288.06;4065064;28;20108;-69
2021/01/06 07:03:13;;;;;;;29.63;17.90;;;1.80;99.90;;;1.55;84.53;101294.75;4118291;28;20031;-69
2021/01/06 07:05:39;;;;;;;33.97;18.80;;;1.80;99.90;;;1.47;84.76;101296.09;4120119;28;20034;-69
2021/01/06 07:07:51;;;;;;;29.30;18.63;;;1.80;99.90;;;1.43;84.74;101299.81;4121422;28;20046;-69
2021/01/06 07:09:52;;;;;;;27.63;17.92;;;1.80;99.90;;;1.45;85.04;101293.59;4120508;28;20098;-69
2021/01/06 07:12:07;;;;;;;28.65;16.50;;;1.80;99.90;;;1.25;85.76;101290.41;4120458;28;20030;-69
2021/01/06 07:14:36;;;;;;;33.53;19.45;;;1.80;99.90;;;1.28;85.93;101292.84;4120368;28;20118;-69
2021/01/06 07:17:02;;;;;;;29.67;18.27;;;1.70;99.90;;;1.33;85.97;101306.44;4120407;28;20034;-69
2021/01/06 07:19:49;;;;;;;31.08;18.08;;;1.70;99.90;;;1.34;85.11;101295.97;4106005;28;20035;-70
2021/01/06 07:22:16;;;;;;;30.88;18.90;;;1.80;99.90;;;1.31;85.75;101306.53;4120979;28;20095;-71
2021/01/06 07:24:22;;;;;;;35.00;19.38;;;1.70;99.90;;;1.29;85.94;101297.09;4111742;28;20030;-69
2021/01/06 07:26:28;;;;;;;32.00;20.75;;;1.70;99.90;;;1.33;85.64;101298.63;4120280;28;20035;-69
2021/01/06 07:28:29;;;;;;;30.92;17.77;;;1.80;99.90;;;1.27;86.39;101298.97;4119837;28;20027;-69
2021/01/06 07:30:51;;;;;;;29.45;18.10;;;1.80;99.90;;;1.29;86.30;101310.94;4131040;28;20041;-68
2021/01/06 07:32:53;;;;;;;30.65;19.10;;;1.80;99.90;;;1.26;86.41;101305.06;4118963;28;20557;-69
2021/01/06 07:34:58;;;;;;;29.60;18.10;;;1.90;99.90;;;1.24;86.78;101309.53;4121288;28;20442;-69
2021/01/06 07:37:01;;;;;;;28.65;17.83;;;1.90;99.90;;;1.45;85.55;101308.34;4118446;28;20050;-69
2021/01/06 07:39:03;;;;;;;28.50;18.60;;;1.90;99.90;;;1.53;84.74;101303.56;4109331;28;20045;-69
2021/01/06 07:41:04;;;;;;;30.17;18.15;;;2.00;99.90;;;1.66;84.82;101314.97;4120830;28;20410;-69
2021/01/06 07:43:08;;;;;;;24.23;15.52;;;2.00;99.90;;;1.69;85.18;101322.59;4119365;28;20621;-69
2021/01/06 07:45:31;;;;;;;30.25;18.33;;;2.20;99.90;;;1.52;85.99;101312.31;4120750;28;20035;-69
2021/01/06 07:47:38;;;;;;;28.00;17.80;;;2.10;99.90;;;1.47;86.27;101316.91;4119949;28;20416;-69
2021/01/06 07:49:52;;;;;;;32.17;17.75;;;2.10;99.90;;;1.44;86.40;101309.28;4119755;28;20032;-69
2021/01/06 07:52:27;;;;;;;28.98;16.67;;;2.10;99.90;;;1.50;86.89;101311.53;4108457;28;20019;-69
2021/01/06 07:54:40;;;;;;;33.78;21.30;;;2.20;99.90;;;1.66;86.30;101312.38;4121043;28;20027;-69
2021/01/06 07:57:17;;;;;;;33.53;21.25;;;2.30;99.90;;;1.72;86.56;101330.22;4119755;28;20026;-69
2021/01/06 07:59:56;;;;;;;31.42;18.95;;;2.30;99.90;;;1.73;86.77;101316.31;4103895;29;20039;-69
2021/01/06 08:02:19;;;;;;;31.90;17.88;;;2.30;99.90;;;1.87;86.14;101318.97;4111824;28;20042;-69
2021/01/06 08:04:37;;;;;;;26.30;16.27;;;2.40;99.90;;;1.78;86.42;101321.25;4119876;28;20034;-69
2021/01/06 08:07:06;;;;;;;27.85;17.33;;;2.40;99.90;;;1.80;86.69;101324.59;4103742;29;20036;-69
2021/01/06 08:09:07;;;;;;;27.13;17.08;;;2.40;99.90;;;1.85;87.25;101320.00;4119670;28;20038;-69
2021/01/06 08:11:11;;;;;;;31.15;18.98;;;2.50;99.90;;;1.94;87.39;101317.69;4119926;28;20030;-69
2021/01/06 08:13:29;;;;;;;33.13;18.35;;;2.50;99.90;;;1.95;87.04;101324.56;4119806;28;20034;-69
2021/01/06 08:15:31;;;;;;;26.45;16.50;;;2.50;99.90;;;2.03;86.15;101324.97;4120614;28;20037;-69
2021/01/06 08:18:03;;;;;;;28.52;16.77;;;2.60;99.90;;;2.24;84.83;101339.34;4103494;29;20031;-69
2021/01/06 08:20:10;;;;;;;33.15;18.67;;;2.70;99.90;;;2.19;85.84;101336.19;4120808;28;20035;-69
2021/01/06 08:22:27;;;;;;;32.97;18.90;;;2.70;99.90;;;2.07;86.24;101346.44;4119456;28;20031;-69
2021/01/06 08:25:07;;;;;;;27.25;17.25;;;2.70;99.90;;;2.15;86.90;101352.09;4119743;28;20057;-69
2021/01/06 08:27:28;;;;;;;30.23;16.95;;;2.70;99.90;;;2.14;87.10;101353.00;4118331;28;20057;-70
2021/01/06 08:29:35;;;;;;;26.42;16.80;;;2.80;99.90;;;2.28;85.84;101352.19;4123317;28;20033;-70
2021/01/06 08:31:37;;;;;;;27.92;17.40;;;2.50;99.90;;;2.31;85.45;101357.22;4124578;28;20034;-70
2021/01/06 08:33:52;;;;;;;35.53;22.50;;;2.90;99.90;;;2.34;85.71;101364.84;4119355;28;20443;-70
2021/01/06 08:35:53;;;;;;;32.00;19.83;;;3.00;99.90;;;2.40;86.18;101364.50;4119553;28;20105;-70
2021/01/06 08:37:54;;;;;;;33.50;21.08;;;3.00;99.90;;;2.38;85.97;101359.41;4110878;28;20203;-70
2021/01/06 08:39:57;;;;;;;33.40;19.08;;;3.00;99.90;;;2.39;86.58;101368.06;4116074;28;20665;-70
2021/01/06 08:42:18;;;;;;;31.30;19.35;;;3.00;99.90;;;2.41;85.82;101364.44;4119447;28;20042;-70
2021/01/06 08:44:44;;;;;;;33.72;19.98;;;3.10;99.90;;;2.41;86.23;101382.66;4089337;29;20534;-70
2021/01/06 08:46:57;;;;;;;40.22;23.98;;;3.10;99.90;;;2.60;84.25;101385.00;4104046;28;20532;-70
2021/01/06 08:49:36;;;;;;;39.15;23.55;;;3.40;99.90;;;2.51;85.05;101372.56;4104333;29;20035;-70
2021/01/06 08:51:38;;;;;;;41.03;22.17;;;3.30;99.90;;;2.60;84.07;101380.63;4100724;29;20047;-70
2021/01/06 08:53:41;;;;;;;35.85;22.00;;;3.30;99.90;;;2.62;84.02;101388.38;4103144;29;20019;-70
2021/01/06 08:55:57;;;;;;;35.58;21.88;;;3.40;99.90;;;2.53;85.18;101375.91;4103021;29;20027;-70
2021/01/06 08:58:12;;;;;;;35.67;22.20;;;3.40;99.90;;;2.55;84.34;101380.09;4104580;28;20036;-70
2021/01/06 09:00:39;;;;;;;37.95;23.33;;;3.40;99.90;;;2.64;84.30;101391.72;4102907;29;20035;-70
2021/01/06 09:03:06;;;;;;;36.80;22.30;;;3.50;99.90;;;2.62;85.35;101388.38;4086782;29;20435;-70
2021/01/06 09:05:47;;;;;;;35.58;20.85;;;3.40;99.90;;;2.59;85.78;101391.16;4103174;29;20063;-70
2021/01/06 09:07:53;;;;;;;36.58;22.00;;;5.00;99.90;;;2.73;84.25;101385.97;4076180;29;20031;-70
2021/01/06 09:10:36;;;;;;;36.47;21.63;;;3.40;99.90;;;2.78;84.74;101399.56;4102743;29;20067;-70